De Witt, Iowa
Current Conditions -  °F | °C
As of 7:15 AM on Wednesday 22 Oct 2014 (Local Time) from KCWI Reporting Station
Clear Clear  
Wind Chill: 25°   Ceiling: Unl
Heat Index: 30°   Visibility: 9mi
Dew Point: 28°   Wind: 5mph
Humidity: 93%   Direction: 70°ENE
Pressure: 30.35"   Gusts: NA
Location:  41.82°N, 90.54°W
Report Text: KCWI 221215Z AUTO 07004KT 9SM CLR M01/M02 A3035 RMK AO1
Loading
Personal Weather Stations






























Interactive Weather Map
Tropical Storm Tracking
New forecast layout! Learn more

10-Day Weather Forecast

Advertisements
Track Severe Weather on mobile